Time;durP1;ratioP1;P1;durP2;ratioP2;P2;SDS_P1;SDS_P2;PMS_P1;PMS_P2;Temp;Humidity;BMP_temperature;BMP_pressure;BME280_temperature;BME280_humidity;BME280_pressure;Samples;Min_cycle;Max_cycle;Signal;HPM_P1;HPM_P2
2022/11/12 00:01:08;;;;;;;2.47;1.60;;;26.30;52.70;;;;;;5051656;28;20536;-68
2022/11/12 00:03:36;;;;;;;5.07;1.80;;;26.10;52.40;;;;;;5052318;28;20215;-68
2022/11/12 00:06:03;;;;;;;4.63;1.90;;;26.20;53.20;;;;;;5052917;28;20253;-70
2022/11/12 00:08:31;;;;;;;5.93;1.87;;;26.10;52.50;;;;;;5051864;28;20192;-73
2022/11/12 00:10:58;;;;;;;3.87;1.93;;;26.50;53.20;;;;;;5051912;28;20175;-67
2022/11/12 00:13:25;;;;;;;4.37;1.80;;;26.40;52.10;;;;;;5052308;28;20175;-68
2022/11/12 00:15:53;;;;;;;4.70;1.73;;;26.50;52.30;;;;;;5048329;28;20187;-67
2022/11/12 00:18:21;;;;;;;4.23;1.87;;;26.40;52.10;;;;;;5052127;28;20164;-68
2022/11/12 00:20:49;;;;;;;4.93;1.77;;;26.30;51.90;;;;;;5052475;28;20242;-68
2022/11/12 00:23:16;;;;;;;4.07;1.70;;;26.30;52.60;;;;;;5051323;28;20613;-72
2022/11/12 00:25:43;;;;;;;6.33;2.30;;;26.50;52.50;;;;;;5050427;28;20168;-70
2022/11/12 00:28:11;;;;;;;6.13;1.70;;;26.70;52.00;;;;;;5049354;28;20179;-71
2022/11/12 00:30:40;;;;;;;2.90;1.40;;;26.80;51.60;;;;;;5053615;28;20274;-68
2022/11/12 00:33:08;;;;;;;7.03;1.80;;;26.80;52.10;;;;;;5034179;28;20198;-67
2022/11/12 00:35:35;;;;;;;3.47;1.50;;;26.70;52.40;;;;;;5050090;28;20658;-66
2022/11/12 00:38:03;;;;;;;5.33;1.73;;;26.80;52.80;;;;;;5055986;28;20241;-68
2022/11/12 00:40:30;;;;;;;3.20;1.63;;;26.80;52.90;;;;;;5056582;28;20630;-68
2022/11/12 00:42:57;;;;;;;4.03;1.90;;;27.00;52.40;;;;;;5056554;28;20212;-68
2022/11/12 00:45:25;;;;;;;6.43;2.30;;;27.10;52.40;;;;;;5036322;28;20248;-68
2022/11/12 00:47:56;;;;;;;3.23;1.97;;;27.40;51.40;;;;;;5050690;28;20176;-67
2022/11/12 00:50:24;;;;;;;4.53;1.90;;;27.50;50.50;;;;;;5056091;28;20231;-68
2022/11/12 00:52:54;;;;;;;6.80;1.70;;;27.50;50.30;;;;;;5055701;28;20591;-68
2022/11/12 00:55:22;;;;;;;4.37;1.50;;;27.30;50.20;;;;;;5044298;28;20194;-67
2022/11/12 00:57:49;;;;;;;3.17;1.60;;;27.20;51.00;;;;;;5055840;28;20180;-68
2022/11/12 01:00:19;;;;;;;2.90;1.77;;;27.20;50.50;;;;;;5051902;28;20184;-68
2022/11/12 01:02:46;;;;;;;2.70;1.60;;;27.30;50.20;;;;;;5051112;28;20216;-69
2022/11/12 01:05:14;;;;;;;4.37;1.40;;;27.40;49.90;;;;;;5055435;28;20259;-68
2022/11/12 01:07:42;;;;;;;2.03;1.40;;;27.40;50.00;;;;;;5054536;28;20184;-68
2022/11/12 01:10:10;;;;;;;4.83;1.50;;;27.30;51.30;;;;;;5042276;28;20225;-68
2022/11/12 01:12:38;;;;;;;3.43;1.40;;;27.30;51.10;;;;;;5055417;28;20180;-68
2022/11/12 01:15:06;;;;;;;5.73;1.50;;;27.40;51.40;;;;;;5053691;28;20638;-69
2022/11/12 01:17:33;;;;;;;2.80;1.50;;;27.60;50.90;;;;;;5050972;28;20630;-68
2022/11/12 01:20:01;;;;;;;2.87;1.50;;;27.80;49.80;;;;;;5053852;28;20188;-71
2022/11/12 01:22:28;;;;;;;4.33;1.90;;;27.80;49.20;;;;;;5053430;28;20304;-68
2022/11/12 01:24:55;;;;;;;3.10;1.40;;;27.90;49.90;;;;;;5052313;28;20694;-69
2022/11/12 01:27:23;;;;;;;3.70;1.43;;;28.10;49.70;;;;;;5050275;28;20173;-70
2022/11/12 01:29:50;;;;;;;2.80;1.60;;;28.00;49.30;;;;;;5049159;28;20311;-68
2022/11/12 01:32:17;;;;;;;5.13;1.63;;;28.00;50.30;;;;;;5055465;28;20653;-70
2022/11/12 01:34:45;;;;;;;1.73;1.40;;;27.90;48.30;;;;;;5055179;28;20224;-68
2022/11/12 01:37:12;;;;;;;3.93;1.40;;;27.80;49.00;;;;;;5055271;28;20164;-68
2022/11/12 01:39:39;;;;;;;3.00;1.13;;;27.70;49.60;;;;;;5055122;28;20180;-68
2022/11/12 01:42:07;;;;;;;1.70;1.30;;;28.00;48.10;;;;;;5055296;28;20196;-70
2022/11/12 01:44:37;;;;;;;3.30;1.10;;;28.20;48.70;;;;;;5055032;28;20300;-66
2022/11/12 01:47:18;;;;;;;2.33;1.27;;;28.20;48.00;;;;;;5054791;28;20215;-67
2022/11/12 01:50:10;;;;;;;7.07;1.47;;;28.20;48.40;;;;;;5055057;28;20171;-67
2022/11/12 01:52:49;;;;;;;4.00;1.30;;;28.40;48.10;;;;;;5054971;28;20190;-67
2022/11/12 01:55:23;;;;;;;1.73;0.83;;;28.50;47.30;;;;;;5054418;28;20164;-67
2022/11/12 01:58:13;;;;;;;2.87;1.50;;;28.70;47.20;;;;;;5055026;28;20198;-67
2022/11/12 02:00:41;;;;;;;1.70;1.07;;;28.60;48.30;;;;;;5050200;28;20188;-67
2022/11/12 02:03:21;;;;;;;3.17;1.50;;;28.80;47.00;;;;;;5054541;28;20301;-71
2022/11/12 02:05:58;;;;;;;2.13;1.17;;;28.80;48.00;;;;;;5053406;28;20309;-68
2022/11/12 02:08:28;;;;;;;2.40;1.40;;;28.70;47.70;;;;;;5054219;28;20258;-70
2022/11/12 02:10:56;;;;;;;5.27;1.53;;;28.80;47.40;;;;;;5054435;28;20179;-68
2022/11/12 02:16:10;;;;;;;5.13;1.30;;;28.40;47.50;;;;;;5054976;28;20208;-69
2022/11/12 02:18:38;;;;;;;2.00;1.17;;;28.90;46.80;;;;;;5054293;28;20180;-72
2022/11/12 02:21:09;;;;;;;2.30;1.20;;;28.80;46.40;;;;;;5054621;28;20254;-70
2022/11/12 02:23:36;;;;;;;4.50;1.50;;;28.90;46.70;;;;;;5054148;28;20216;-70
2022/11/12 02:26:04;;;;;;;10.67;1.53;;;28.60;47.90;;;;;;5054579;28;20178;-72
2022/11/12 02:28:32;;;;;;;10.33;1.50;;;28.80;46.80;;;;;;5034552;28;20546;-72
2022/11/12 02:30:59;;;;;;;13.77;1.87;;;28.40;47.80;;;;;;5048730;28;20538;-74
2022/11/12 02:33:27;;;;;;;4.03;1.20;;;27.80;49.20;;;;;;5053987;28;20592;-71
2022/11/12 02:35:54;;;;;;;4.07;1.77;;;28.40;48.20;;;;;;5054278;28;20195;-73
2022/11/12 02:38:21;;;;;;;13.60;2.00;;;28.10;47.80;;;;;;5054121;28;20180;-70
2022/11/12 02:40:49;;;;;;;9.87;1.63;;;27.80;49.10;;;;;;5054265;28;20186;-72
2022/11/12 02:43:16;;;;;;;1.43;1.20;;;28.50;47.40;;;;;;5054130;28;20195;-69
2022/11/12 02:45:43;;;;;;;3.03;1.43;;;28.80;47.00;;;;;;5054093;28;20272;-70
2022/11/12 02:48:11;;;;;;;3.87;1.40;;;29.10;45.90;;;;;;5054098;28;20681;-71
2022/11/12 02:50:38;;;;;;;8.20;1.77;;;28.90;46.20;;;;;;5053690;28;20176;-70
2022/11/12 02:53:05;;;;;;;6.30;1.63;;;28.80;46.40;;;;;;5053950;28;20634;-69
2022/11/12 02:55:33;;;;;;;4.47;1.33;;;28.80;46.90;;;;;;5053853;28;20176;-68
2022/11/12 02:58:00;;;;;;;5.63;1.30;;;29.20;46.50;;;;;;5053904;28;20257;-70
2022/11/12 03:00:27;;;;;;;2.07;1.40;;;29.30;45.90;;;;;;5053354;28;20178;-68
2022/11/12 03:02:58;;;;;;;6.10;1.37;;;29.00;45.90;;;;;;5035862;28;20565;-68
2022/11/12 03:05:27;;;;;;;4.27;1.30;;;29.30;46.50;;;;;;5053489;28;20180;-67
2022/11/12 03:07:59;;;;;;;1.17;0.90;;;29.30;44.70;;;;;;5053579;28;20537;-67
2022/11/12 03:10:27;;;;;;;2.03;1.50;;;29.50;44.50;;;;;;5053637;28;20190;-68
2022/11/12 03:12:57;;;;;;;4.73;1.67;;;29.20;45.50;;;;;;5053805;28;20180;-68
2022/11/12 03:15:24;;;;;;;2.53;1.30;;;28.80;47.00;;;;;;5053451;28;20657;-67
2022/11/12 03:17:52;;;;;;;3.47;1.60;;;29.30;45.50;;;;;;5053774;28;20241;-67
2022/11/12 03:20:20;;;;;;;2.43;1.10;;;29.20;45.60;;;;;;5053067;28;20664;-68
2022/11/12 03:23:06;;;;;;;2.77;1.30;;;29.70;43.40;;;;;;5052954;28;20260;-68
2022/11/12 03:25:35;;;;;;;2.13;1.43;;;28.70;45.20;;;;;;5053518;28;20296;-68
2022/11/12 03:28:06;;;;;;;5.13;0.97;;;29.20;44.90;;;;;;5053349;28;20187;-67
2022/11/12 03:30:36;;;;;;;2.40;1.17;;;29.50;44.70;;;;;;5053216;28;20267;-68
2022/11/12 03:33:04;;;;;;;2.70;1.13;;;30.00;43.70;;;;;;5053334;28;20215;-67
2022/11/12 03:35:33;;;;;;;4.65;1.50;;;30.60;42.60;;;;;;5034881;28;20187;-67
2022/11/12 03:38:01;;;;;;;2.58;1.42;;;31.20;41.20;;;;;;5052822;28;20183;-69
2022/11/12 03:40:29;;;;;;;2.83;1.23;;;30.30;42.30;;;;;;5053393;28;20640;-67
2022/11/12 03:42:56;;;;;;;2.88;1.27;;;30.40;44.60;;;;;;5053068;28;20207;-67
2022/11/12 03:45:26;;;;;;;6.63;1.63;;;29.90;44.50;;;;;;5052793;28;20230;-67
2022/11/12 03:47:55;;;;;;;6.32;1.30;;;30.60;44.40;;;;;;5052957;28;20180;-67
2022/11/12 03:50:26;;;;;;;3.65;1.60;;;30.60;43.90;;;;;;5052820;28;20238;-67
2022/11/12 03:52:56;;;;;;;5.15;1.60;;;30.50;43.90;;;;;;5052950;28;20184;-68
2022/11/12 03:55:26;;;;;;;2.75;1.13;;;30.10;45.40;;;;;;5052788;28;20172;-68
2022/11/12 03:57:54;;;;;;;4.22;1.15;;;30.10;45.40;;;;;;5052934;28;20653;-68
2022/11/12 04:00:23;;;;;;;3.57;1.50;;;30.60;44.70;;;;;;5050317;28;20246;-68
2022/11/12 04:02:51;;;;;;;4.00;1.40;;;30.60;43.60;;;;;;5052637;28;20210;-67
2022/11/12 04:10:51;;;;;;;4.77;1.40;;;29.80;45.10;;;;;;5033132;28;20184;-68
2022/11/12 04:13:28;;;;;;;2.53;1.00;;;30.00;44.60;;;;;;5050030;28;20172;-68
2022/11/12 04:21:55;;;;;;;3.60;1.50;;;31.20;42.80;;;;;;5049179;28;20186;-67
2022/11/12 04:27:33;;;;;;;3.03;1.33;;;29.90;45.40;;;;;;5052270;28;20532;-67
2022/11/12 04:30:15;;;;;;;2.85;1.33;;;30.50;43.80;;;;;;5051295;28;20188;-68
2022/11/12 04:32:50;;;;;;;3.67;1.30;;;30.70;43.20;;;;;;5052167;28;20270;-68
2022/11/12 04:35:18;;;;;;;3.83;1.48;;;30.60;43.40;;;;;;5051640;28;20179;-69
2022/11/12 04:37:45;;;;;;;2.88;1.05;;;30.60;43.90;;;;;;5051474;28;20176;-70
2022/11/12 04:45:58;;;;;;;3.92;1.50;;;30.80;43.30;;;;;;5051458;28;20361;-69
2022/11/12 04:48:26;;;;;;;4.35;1.42;;;30.40;44.90;;;;;;5052040;28;20199;-70
2022/11/12 04:51:02;;;;;;;3.30;1.70;;;29.60;46.90;;;;;;5051811;28;20257;-73
2022/11/12 04:53:29;;;;;;;4.15;1.63;;;29.50;48.10;;;;;;5051905;28;20183;-69
2022/11/12 04:55:58;;;;;;;5.47;1.60;;;29.30;47.30;;;;;;5051846;28;20286;-71
2022/11/12 04:58:26;;;;;;;5.30;1.63;;;29.30;47.90;;;;;;5049960;28;20190;-68
2022/11/12 05:00:53;;;;;;;5.43;1.77;;;28.40;49.20;;;;;;5043823;28;20223;-68
2022/11/12 05:03:20;;;;;;;2.40;1.43;;;28.40;50.20;;;;;;5044800;28;20235;-68
2022/11/12 05:05:48;;;;;;;4.10;1.53;;;28.00;51.50;;;;;;5050565;28;20186;-69
2022/11/12 05:08:15;;;;;;;5.17;1.53;;;28.40;50.70;;;;;;5052168;28;20267;-67
2022/11/12 05:10:43;;;;;;;4.53;1.57;;;28.40;51.30;;;;;;5050987;28;20215;-72
2022/11/12 05:13:11;;;;;;;4.57;1.67;;;28.10;52.80;;;;;;5051545;28;20194;-67
2022/11/12 05:15:38;;;;;;;5.37;1.70;;;27.40;54.50;;;;;;5051210;28;20196;-67
2022/11/12 05:18:05;;;;;;;8.23;2.30;;;27.30;56.20;;;;;;5051677;28;20187;-67
2022/11/12 05:20:34;;;;;;;9.27;3.63;;;27.50;57.10;;;;;;5051016;28;20180;-68
2022/11/12 05:23:01;;;;;;;6.90;2.90;;;27.30;58.40;;;;;;5053622;28;20265;-68
2022/11/12 05:25:28;;;;;;;10.73;3.10;;;27.50;58.00;;;;;;5055275;28;20626;-69
2022/11/12 05:27:56;;;;;;;9.20;2.17;;;27.60;57.40;;;;;;5053967;28;20188;-69
2022/11/12 05:30:23;;;;;;;8.33;2.23;;;27.10;59.00;;;;;;5055369;28;20229;-68
2022/11/12 05:32:50;;;;;;;6.40;2.00;;;26.80;60.50;;;;;;5052653;28;20190;-72
2022/11/12 05:35:18;;;;;;;8.47;2.20;;;26.60;61.30;;;;;;5052592;28;20186;-66
2022/11/12 05:37:45;;;;;;;7.47;2.40;;;26.70;60.60;;;;;;5066568;28;20183;-68
2022/11/12 05:40:13;;;;;;;5.43;2.03;;;26.80;59.60;;;;;;5054942;28;20184;-68
2022/11/12 05:42:40;;;;;;;6.63;2.10;;;27.10;59.60;;;;;;5054697;28;20231;-68
2022/11/12 05:45:08;;;;;;;9.43;2.07;;;27.30;58.80;;;;;;5054527;28;20243;-68
2022/11/12 05:47:36;;;;;;;7.47;2.03;;;27.70;57.90;;;;;;5055001;28;20654;-67
2022/11/12 05:50:03;;;;;;;8.33;6.20;;;27.80;57.20;;;;;;5054404;28;20176;-66
2022/11/12 05:52:31;;;;;;;8.27;3.37;;;27.20;58.50;;;;;;5054479;28;20180;-68
2022/11/12 05:54:58;;;;;;;7.00;2.50;;;26.70;59.80;;;;;;5054450;28;20283;-68
2022/11/12 05:57:27;;;;;;;10.10;4.17;;;26.20;61.60;;;;;;5054377;28;20182;-67
2022/11/12 05:59:54;;;;;;;9.57;3.20;;;25.70;63.80;;;;;;5054355;28;20180;-68
2022/11/12 06:02:21;;;;;;;6.60;2.33;;;25.30;65.00;;;;;;5044740;28;20211;-67
2022/11/12 06:04:49;;;;;;;11.73;2.57;;;25.30;65.50;;;;;;5048354;28;20187;-67
2022/11/12 06:07:16;;;;;;;8.07;2.03;;;25.10;67.00;;;;;;5054607;28;20180;-66
2022/11/12 06:09:43;;;;;;;7.67;2.37;;;24.80;67.60;;;;;;5054867;28;20180;-67
2022/11/12 06:12:11;;;;;;;7.23;2.50;;;24.50;68.80;;;;;;5054414;28;20176;-67
2022/11/12 06:14:38;;;;;;;9.80;2.20;;;24.50;69.10;;;;;;5049103;28;20665;-67
2022/11/12 06:17:05;;;;;;;5.47;2.30;;;24.50;68.50;;;;;;5047483;28;20179;-67
2022/11/12 06:19:33;;;;;;;12.63;2.47;;;24.30;68.60;;;;;;5032713;28;20188;-67
2022/11/12 06:22:00;;;;;;;11.30;2.40;;;24.40;67.90;;;;;;5052639;28;20273;-67
2022/11/12 06:24:29;;;;;;;10.07;2.47;;;24.20;68.80;;;;;;5041954;28;20835;-66
2022/11/12 06:26:56;;;;;;;7.60;2.40;;;24.10;69.10;;;;;;5054049;28;20664;-67
2022/11/12 06:29:23;;;;;;;7.90;2.30;;;24.00;69.40;;;;;;5052578;28;20175;-66
2022/11/12 06:31:51;;;;;;;9.83;2.43;;;23.50;71.20;;;;;;5052302;28;20187;-68
2022/11/12 06:34:18;;;;;;;12.40;2.77;;;23.40;72.20;;;;;;5051206;28;20227;-68
2022/11/12 06:36:47;;;;;;;10.07;2.60;;;23.30;72.20;;;;;;5052557;28;20182;-67
2022/11/12 06:39:15;;;;;;;9.33;2.23;;;23.30;73.10;;;;;;5053026;28;20176;-66
2022/11/12 06:41:42;;;;;;;7.97;2.87;;;23.20;73.10;;;;;;5053956;28;20287;-67
2022/11/12 06:44:09;;;;;;;12.23;2.90;;;23.30;72.90;;;;;;5053920;28;20590;-67
2022/11/12 06:46:37;;;;;;;9.80;2.40;;;23.30;73.00;;;;;;5069641;28;20206;-67
2022/11/12 06:49:04;;;;;;;12.17;2.60;;;23.20;73.20;;;;;;5053127;28;20541;-67
2022/11/12 06:51:31;;;;;;;11.00;2.90;;;23.20;73.00;;;;;;5052944;28;20188;-67
2022/11/12 06:53:59;;;;;;;7.47;2.53;;;23.30;73.40;;;;;;5054121;28;20196;-68
2022/11/12 06:56:26;;;;;;;12.20;2.80;;;23.20;73.60;;;;;;5061836;28;20179;-66
2022/11/12 06:58:53;;;;;;;4.63;1.93;;;23.20;73.90;;;;;;5053548;28;20597;-67
2022/11/12 07:01:22;;;;;;;7.50;2.80;;;23.40;73.00;;;;;;5052772;28;20215;-66
2022/11/12 07:03:52;;;;;;;13.13;2.37;;;23.40;72.50;;;;;;5053726;28;20223;-70
2022/11/12 07:06:20;;;;;;;11.33;2.97;;;23.50;72.80;;;;;;5053344;28;20263;-68
2022/11/12 07:08:48;;;;;;;7.77;2.87;;;23.40;72.90;;;;;;5053641;28;20235;-70
2022/11/12 07:11:17;;;;;;;7.23;2.40;;;23.50;72.50;;;;;;5053396;28;20183;-68
2022/11/12 07:13:46;;;;;;;7.90;2.60;;;23.60;71.90;;;;;;5053462;28;20197;-67
2022/11/12 07:16:17;;;;;;;6.27;2.37;;;23.40;72.20;;;;;;5052873;28;20593;-69
2022/11/12 07:18:46;;;;;;;8.07;2.37;;;23.30;72.90;;;;;;5043246;28;20669;-70
2022/11/12 07:21:16;;;;;;;8.23;2.80;;;23.20;73.50;;;;;;5052669;28;20518;-73
2022/11/12 07:23:43;;;;;;;10.23;2.70;;;23.20;73.40;;;;;;5053355;28;20199;-67
2022/11/12 07:26:20;;;;;;;7.67;2.70;;;23.00;74.20;;;;;;5053267;28;20186;-68
2022/11/12 07:28:49;;;;;;;9.60;3.03;;;22.70;74.90;;;;;;5053005;28;20207;-70
2022/11/12 07:31:18;;;;;;;9.37;2.80;;;22.60;75.40;;;;;;5053173;28;20180;-67
2022/11/12 07:33:50;;;;;;;7.50;2.77;;;22.50;75.80;;;;;;5053247;28;20176;-69
2022/11/12 07:36:19;;;;;;;14.97;2.67;;;22.50;76.10;;;;;;5052759;28;20206;-68
2022/11/12 07:38:50;;;;;;;8.40;2.50;;;22.50;75.70;;;;;;5053123;28;20196;-68
2022/11/12 07:41:26;;;;;;;7.53;2.43;;;22.30;76.20;;;;;;5053148;28;20183;-68
2022/11/12 07:43:54;;;;;;;6.13;2.63;;;22.30;76.10;;;;;;5052718;28;20241;-71
2022/11/12 07:46:26;;;;;;;12.73;2.77;;;22.30;76.30;;;;;;5052862;28;20233;-67
2022/11/12 07:48:55;;;;;;;5.13;2.47;;;22.40;76.40;;;;;;5052882;28;20215;-73
2022/11/12 07:51:23;;;;;;;7.70;2.40;;;22.50;76.50;;;;;;5051854;28;20186;-70
2022/11/12 07:53:55;;;;;;;8.10;2.67;;;22.50;76.50;;;;;;5052821;28;20596;-71
2022/11/12 07:56:25;;;;;;;8.20;2.80;;;22.40;76.50;;;;;;5034724;28;20183;-68
2022/11/12 07:58:53;;;;;;;7.20;2.63;;;22.30;76.70;;;;;;5052476;28;20245;-68
2022/11/12 08:01:31;;;;;;;8.80;2.83;;;22.30;77.20;;;;;;5052553;28;20658;-67
2022/11/12 08:04:00;;;;;;;11.10;3.03;;;22.20;77.30;;;;;;5053664;28;20747;-67
2022/11/12 08:06:30;;;;;;;9.20;2.57;;;22.00;77.50;;;;;;5051894;28;20172;-67
2022/11/12 08:08:58;;;;;;;8.37;2.23;;;22.00;77.40;;;;;;5052989;28;20176;-67
2022/11/12 08:11:26;;;;;;;8.97;2.70;;;21.90;77.80;;;;;;5052460;28;20199;-67
2022/11/12 08:13:53;;;;;;;13.07;2.63;;;21.80;78.30;;;;;;5052362;28;20655;-67
2022/11/12 08:16:21;;;;;;;9.70;2.90;;;21.80;78.90;;;;;;5052299;28;20649;-67
2022/11/12 08:18:48;;;;;;;10.50;3.23;;;21.70;78.90;;;;;;5052697;28;20200;-67
2022/11/12 08:21:17;;;;;;;9.57;3.13;;;21.70;79.20;;;;;;5050789;28;20176;-67
2022/11/12 08:23:45;;;;;;;10.37;3.00;;;21.60;79.40;;;;;;5051113;28;20215;-67
2022/11/12 08:26:15;;;;;;;6.80;2.80;;;21.60;79.50;;;;;;5052537;28;20253;-67
2022/11/12 08:28:42;;;;;;;9.40;3.03;;;21.50;79.50;;;;;;5051935;28;20179;-68
2022/11/12 08:31:16;;;;;;;10.10;2.80;;;21.50;79.60;;;;;;5052337;28;20245;-67
2022/11/12 08:33:43;;;;;;;9.30;2.80;;;21.60;79.30;;;;;;5052227;28;20168;-67
2022/11/12 08:36:13;;;;;;;10.37;3.17;;;21.60;79.20;;;;;;5051679;28;20188;-68
2022/11/12 08:38:41;;;;;;;7.80;2.80;;;21.60;79.60;;;;;;5052257;28;20257;-68
2022/11/12 08:41:11;;;;;;;6.63;2.23;;;21.50;79.60;;;;;;5052148;28;20199;-67
2022/11/12 08:43:40;;;;;;;8.30;2.23;;;21.40;80.00;;;;;;5051616;28;20612;-70
2022/11/12 08:46:07;;;;;;;8.93;2.80;;;21.40;79.90;;;;;;5050385;28;20227;-68
2022/11/12 08:48:35;;;;;;;9.77;2.83;;;21.50;79.80;;;;;;5050188;28;20280;-69
2022/11/12 08:51:04;;;;;;;7.97;2.67;;;21.50;79.70;;;;;;5051541;28;20518;-68
2022/11/12 08:53:32;;;;;;;6.53;2.53;;;21.60;79.30;;;;;;5063822;28;20642;-70
2022/11/12 08:56:00;;;;;;;16.17;3.30;;;21.40;79.70;;;;;;5051776;28;20200;-68
2022/11/12 08:58:27;;;;;;;8.77;2.40;;;21.40;79.60;;;;;;5053953;28;20270;-66
2022/11/12 09:00:56;;;;;;;9.00;2.70;;;21.50;79.60;;;;;;5056251;28;20172;-67
2022/11/12 09:03:25;;;;;;;12.70;2.90;;;21.70;79.20;;;;;;5055612;28;20247;-69
2022/11/12 09:05:53;;;;;;;6.80;2.80;;;21.70;79.00;;;;;;5051440;28;20190;-71
2022/11/12 09:08:24;;;;;;;11.50;3.10;;;21.70;79.10;;;;;;5055768;28;20187;-72
2022/11/12 09:10:52;;;;;;;13.40;5.60;;;21.70;78.80;;;;;;5055328;28;20184;-68
2022/11/12 09:13:19;;;;;;;9.10;4.97;;;21.80;78.80;;;;;;5055646;28;20187;-68
2022/11/12 09:15:47;;;;;;;13.40;3.47;;;21.70;78.90;;;;;;5055596;28;20245;-68
2022/11/12 09:18:17;;;;;;;7.73;2.60;;;21.70;79.00;;;;;;5055077;28;20180;-71
2022/11/12 09:20:45;;;;;;;8.87;2.80;;;21.60;79.50;;;;;;5054652;28;20259;-68
2022/11/12 09:23:16;;;;;;;8.50;2.63;;;21.60;79.30;;;;;;5053921;28;20207;-67
2022/11/12 09:25:44;;;;;;;7.83;3.03;;;21.60;79.40;;;;;;5055252;28;20241;-68
2022/11/12 09:28:17;;;;;;;9.67;3.20;;;21.60;79.40;;;;;;5054205;28;20188;-68
2022/11/12 09:30:49;;;;;;;9.47;3.37;;;21.60;79.20;;;;;;5047443;28;20226;-67
2022/11/12 09:33:25;;;;;;;11.17;3.10;;;21.50;79.30;;;;;;5055599;28;20207;-66
2022/11/12 09:35:53;;;;;;;12.83;3.97;;;21.50;79.90;;;;;;5054476;28;20590;-70
2022/11/12 09:38:21;;;;;;;9.97;4.97;;;21.60;79.80;;;;;;5035392;28;20553;-71
2022/11/12 09:40:51;;;;;;;12.07;6.60;;;21.60;79.90;;;;;;5054579;28;20184;-67
2022/11/12 09:43:27;;;;;;;10.00;3.57;;;21.70;79.40;;;;;;5055057;28;20642;-70
2022/11/12 09:46:00;;;;;;;12.57;3.17;;;21.60;79.70;;;;;;5054440;28;20652;-67
2022/11/12 09:48:35;;;;;;;9.33;3.23;;;21.70;79.70;;;;;;5054779;28;20197;-72
2022/11/12 09:51:21;;;;;;;15.03;5.37;;;21.50;80.00;;;;;;5053921;28;20175;-70
2022/11/12 09:53:56;;;;;;;9.63;3.47;;;21.60;80.10;;;;;;5055145;28;20235;-71
2022/11/12 09:56:27;;;;;;;11.97;2.80;;;21.70;79.90;;;;;;5053188;28;20650;-68
2022/11/12 09:58:54;;;;;;;9.57;2.90;;;21.70;79.90;;;;;;5054638;28;20191;-67
2022/11/12 10:01:55;;;;;;;9.57;2.93;;;21.70;79.90;;;;;;5053690;28;20179;-68
2022/11/12 10:04:31;;;;;;;13.63;2.70;;;21.70;79.90;;;;;;5033921;28;20650;-68
2022/11/12 10:07:27;;;;;;;14.73;11.57;;;21.70;80.10;;;;;;5049446;28;20191;-70
2022/11/12 10:10:12;;;;;;;9.70;3.87;;;21.70;80.10;;;;;;5038823;28;20207;-67
2022/11/12 10:12:57;;;;;;;12.47;3.00;;;21.70;80.10;;;;;;5053733;28;20183;-67
2022/11/12 10:18:51;;;;;;;10.40;2.83;;;21.70;80.40;;;;;;5055170;28;20246;-68
2022/11/12 10:21:43;;;;;;;13.33;2.60;;;21.70;80.30;;;;;;5054103;28;20180;-72
2022/11/12 10:24:11;;;;;;;8.90;2.87;;;21.60;80.40;;;;;;5053632;28;20254;-67
2022/11/12 10:26:39;;;;;;;10.67;3.17;;;21.60;80.30;;;;;;5045175;28;20187;-66
2022/11/12 10:29:25;;;;;;;9.90;2.87;;;21.60;80.60;;;;;;5054790;28;20589;-68
2022/11/12 10:31:52;;;;;;;11.50;3.17;;;21.50;80.50;;;;;;5054100;28;20259;-67
2022/11/12 10:34:21;;;;;;;5.63;2.60;;;21.50;80.80;;;;;;5053176;28;20183;-68
2022/11/12 10:37:11;;;;;;;9.97;2.80;;;21.50;80.80;;;;;;5049748;28;20175;-68
2022/11/12 10:39:46;;;;;;;8.73;2.83;;;21.40;80.90;;;;;;5053868;28;20643;-67
2022/11/12 10:42:18;;;;;;;9.73;2.80;;;21.40;81.40;;;;;;5041725;28;20564;-67
2022/11/12 10:44:46;;;;;;;13.63;3.23;;;21.40;81.20;;;;;;5053164;28;20576;-67
2022/11/12 10:47:22;;;;;;;12.10;3.00;;;21.40;81.50;;;;;;5052258;28;20187;-69
2022/11/12 10:50:11;;;;;;;9.67;3.20;;;21.40;81.40;;;;;;5052234;28;20629;-70
2022/11/12 10:52:38;;;;;;;9.13;3.20;;;21.40;81.50;;;;;;5053095;28;20183;-70
2022/11/12 10:55:30;;;;;;;6.63;2.83;;;21.30;81.60;;;;;;5053398;28;20258;-72
2022/11/12 10:58:11;;;;;;;11.27;2.80;;;21.30;81.70;;;;;;5044421;28;20226;-68
2022/11/12 11:01:02;;;;;;;11.63;3.00;;;21.30;81.70;;;;;;5043924;28;20259;-71
2022/11/12 11:03:46;;;;;;;8.20;3.00;;;21.30;82.20;;;;;;5048747;28;20681;-68
2022/11/12 11:06:17;;;;;;;8.47;3.50;;;21.20;82.40;;;;;;5051781;28;20665;-67
2022/11/12 11:08:47;;;;;;;11.23;3.33;;;21.10;82.80;;;;;;5052516;28;20183;-68
2022/11/12 11:11:15;;;;;;;10.67;3.40;;;21.10;83.00;;;;;;5052734;28;20210;-68
2022/11/12 11:13:43;;;;;;;7.23;2.43;;;21.10;83.20;;;;;;5052449;28;20237;-68
2022/11/12 11:16:39;;;;;;;17.20;3.57;;;21.10;82.80;;;;;;5051718;28;20176;-68
2022/11/12 11:19:08;;;;;;;7.43;2.90;;;21.00;82.90;;;;;;5049049;28;20188;-68
2022/11/12 11:21:35;;;;;;;8.07;2.60;;;21.00;82.90;;;;;;5051724;28;20239;-72
2022/11/12 11:24:15;;;;;;;8.70;2.67;;;20.90;83.40;;;;;;5052227;28;20299;-68
2022/11/12 11:26:48;;;;;;;9.03;2.67;;;20.90;83.50;;;;;;5051944;28;20190;-67
2022/11/12 11:29:30;;;;;;;10.27;2.83;;;21.00;83.30;;;;;;5052441;28;20187;-70
2022/11/12 11:32:18;;;;;;;12.57;3.17;;;20.90;83.60;;;;;;5052354;28;20195;-68
2022/11/12 11:35:19;;;;;;;10.80;3.47;;;20.80;83.90;;;;;;5052294;28;20298;-68
2022/11/12 11:38:13;;;;;;;12.53;3.00;;;20.80;84.20;;;;;;5052284;28;20547;-68
2022/11/12 11:41:04;;;;;;;15.10;3.37;;;20.80;84.40;;;;;;5052219;28;20541;-69
2022/11/12 11:47:16;;;;;;;10.03;3.33;;;20.80;84.50;;;;;;5082907;27;20550;-66
2022/11/12 11:50:06;;;;;;;9.33;3.80;;;20.80;84.50;;;;;;5039999;28;20191;-66
2022/11/12 11:52:51;;;;;;;7.03;3.83;;;20.90;84.10;;;;;;5050036;28;20255;-66
2022/11/12 11:55:22;;;;;;;9.87;3.53;;;20.90;84.20;;;;;;5056414;28;20682;-66
2022/11/12 11:58:07;;;;;;;11.53;3.10;;;20.90;84.10;;;;;;5060696;28;20263;-65
2022/11/12 12:00:47;;;;;;;9.97;3.33;;;20.80;84.30;;;;;;5060756;28;20176;-66
2022/11/12 12:03:18;;;;;;;8.60;3.20;;;20.80;84.40;;;;;;5048770;28;20530;-67
2022/11/12 12:06:03;;;;;;;9.10;3.30;;;20.80;84.50;;;;;;5052325;28;20220;-66
2022/11/12 12:08:48;;;;;;;10.50;3.30;;;20.80;84.60;;;;;;5049891;28;20249;-66
2022/11/12 12:11:38;;;;;;;7.10;3.50;;;20.70;84.70;;;;;;5053655;28;20585;-66
2022/11/12 12:14:18;;;;;;;10.20;3.23;;;20.60;85.00;;;;;;5049539;28;20196;-67
2022/11/12 12:17:08;;;;;;;12.73;4.00;;;20.60;85.10;;;;;;5049293;28;20172;-65
2022/11/12 12:19:47;;;;;;;11.47;3.90;;;20.50;85.20;;;;;;5049271;28;20179;-67
2022/11/12 12:22:20;;;;;;;7.67;3.60;;;20.50;85.50;;;;;;5050989;28;20257;-68
2022/11/12 12:24:58;;;;;;;11.27;4.03;;;20.50;85.50;;;;;;5055592;28;20215;-65
2022/11/12 12:27:32;;;;;;;11.70;3.83;;;20.50;85.70;;;;;;5049036;28;20184;-66
2022/11/12 12:30:05;;;;;;;10.60;3.83;;;20.50;85.80;;;;;;5049144;28;20271;-68
2022/11/12 12:32:49;;;;;;;13.47;4.87;;;20.50;85.60;;;;;;5049198;28;20175;-66
2022/11/12 12:35:42;;;;;;;13.37;4.17;;;20.60;85.50;;;;;;5048497;28;20654;-66
2022/11/12 12:38:15;;;;;;;11.77;3.90;;;20.50;85.70;;;;;;5048112;28;20214;-66
2022/11/12 12:40:52;;;;;;;15.20;3.70;;;20.50;85.90;;;;;;5051335;28;20182;-67
2022/11/12 12:43:42;;;;;;;12.63;3.60;;;20.70;85.80;;;;;;5051020;28;20642;-66
2022/11/12 12:46:12;;;;;;;13.17;4.30;;;20.60;85.80;;;;;;5060428;28;20228;-66
2022/11/12 12:48:45;;;;;;;9.23;3.73;;;20.60;86.00;;;;;;5048495;28;20176;-67
2022/11/12 12:51:13;;;;;;;10.60;4.20;;;20.60;86.10;;;;;;5048419;28;20233;-69
2022/11/12 12:53:40;;;;;;;7.63;3.43;;;20.60;86.10;;;;;;5048823;28;20204;-66
2022/11/12 12:56:30;;;;;;;13.63;3.63;;;20.60;86.30;;;;;;5044891;28;20240;-68
2022/11/12 12:59:02;;;;;;;13.27;4.00;;;20.60;86.40;;;;;;5035375;28;20573;-65
2022/11/12 13:01:35;;;;;;;17.77;4.53;;;20.60;86.50;;;;;;5035166;28;20216;-67
2022/11/12 13:04:03;;;;;;;12.77;3.77;;;20.50;86.70;;;;;;5035115;28;20184;-66
2022/11/12 13:07:00;;;;;;;19.43;4.20;;;20.50;86.70;;;;;;5035248;28;20199;-66
2022/11/12 13:09:27;;;;;;;14.83;3.87;;;20.40;86.80;;;;;;5033243;28;20238;-66
2022/11/12 13:14:31;;;;;;;14.07;4.30;;;20.40;86.80;;;;;;5035135;28;20211;-66
2022/11/12 13:17:00;;;;;;;12.27;3.53;;;20.30;86.80;;;;;;5034955;28;20188;-68
2022/11/12 13:19:38;;;;;;;10.13;3.90;;;20.30;86.80;;;;;;5034771;28;20184;-66
2022/11/12 13:22:17;;;;;;;8.30;3.60;;;20.30;87.10;;;;;;5047961;28;20177;-66
2022/11/12 13:25:04;;;;;;;10.73;3.63;;;20.30;87.10;;;;;;5041482;28;20192;-65
2022/11/12 13:27:43;;;;;;;13.77;4.23;;;20.20;87.10;;;;;;5034832;28;20272;-66
2022/11/12 13:30:16;;;;;;;8.40;3.83;;;20.20;87.40;;;;;;5034950;28;20726;-65
2022/11/12 13:32:46;;;;;;;12.20;4.10;;;20.20;87.40;;;;;;5034445;28;20231;-66
2022/11/12 13:35:20;;;;;;;13.70;4.23;;;20.10;87.50;;;;;;5034291;28;20192;-66
2022/11/12 13:37:53;;;;;;;8.87;4.30;;;20.10;87.50;;;;;;5036328;28;20176;-65